createdAt,value
2023-05-06T00:01:30.269Z,16.58
2023-05-06T00:03:58.671Z,16.35
2023-05-06T00:06:27.067Z,16.88
2023-05-06T00:08:55.318Z,17.17
2023-05-06T00:11:23.485Z,16.10
2023-05-06T00:13:51.670Z,16.20
2023-05-06T00:16:19.899Z,13.80
2023-05-06T00:18:48.361Z,15.45
2023-05-06T00:21:16.700Z,13.60
2023-05-06T00:23:44.874Z,14.13
2023-05-06T00:26:13.162Z,13.98
2023-05-06T00:28:41.274Z,12.95
2023-05-06T00:31:09.511Z,14.93
2023-05-06T00:33:37.766Z,13.95
2023-05-06T00:36:06.240Z,12.45
2023-05-06T00:38:34.554Z,15.55
2023-05-06T00:41:02.837Z,14.18
2023-05-06T00:43:31.240Z,13.75
2023-05-06T00:45:59.580Z,13.38
2023-05-06T00:48:28.002Z,14.52
2023-05-06T00:50:56.671Z,13.50
2023-05-06T00:53:25.223Z,14.23
2023-05-06T00:55:53.755Z,13.43
2023-05-06T00:58:22.108Z,15.10
2023-05-06T01:00:50.988Z,15.35
2023-05-06T01:03:19.416Z,18.23
2023-05-06T01:06:13.949Z,17.33
2023-05-06T01:08:54.369Z,17.60
2023-05-06T01:12:02.936Z,16.95
2023-05-06T01:14:44.127Z,14.95
2023-05-06T01:17:18.624Z,14.27
2023-05-06T01:19:51.558Z,14.98
2023-05-06T01:22:20.977Z,14.05
2023-05-06T01:24:49.302Z,15.10
2023-05-06T01:27:17.659Z,15.60
2023-05-06T01:29:47.621Z,15.57
2023-05-06T01:32:34.631Z,14.32
2023-05-06T01:35:24.872Z,15.40
2023-05-06T01:38:05.615Z,14.85
2023-05-06T01:40:44.410Z,15.23
2023-05-06T01:43:19.176Z,14.73
2023-05-06T01:45:49.957Z,14.68
2023-05-06T01:48:19.191Z,15.93
2023-05-06T01:50:47.462Z,15.80
2023-05-06T01:53:15.610Z,17.55
2023-05-06T01:55:43.898Z,22.95
2023-05-06T01:58:12.155Z,27.23
2023-05-06T02:00:42.679Z,26.60
2023-05-06T02:03:11.082Z,25.83
2023-05-06T02:05:39.549Z,24.25
2023-05-06T02:08:08.811Z,25.02
2023-05-06T02:10:36.939Z,20.88
2023-05-06T02:13:09.871Z,20.27
2023-05-06T02:15:38.156Z,18.08
2023-05-06T02:18:08.237Z,17.00
2023-05-06T02:20:36.583Z,17.00
2023-05-06T02:23:04.952Z,15.07
2023-05-06T02:25:33.842Z,16.25
2023-05-06T02:28:02.114Z,16.73
2023-05-06T02:30:30.325Z,16.90
2023-05-06T02:32:58.581Z,16.92
2023-05-06T02:35:26.896Z,16.85
2023-05-06T02:37:55.042Z,15.80
2023-05-06T02:40:23.400Z,15.77
2023-05-06T02:42:51.526Z,15.15
2023-05-06T02:45:20.077Z,16.42
2023-05-06T02:47:48.329Z,15.90
2023-05-06T02:50:16.661Z,15.85
2023-05-06T02:52:44.998Z,15.15
2023-05-06T02:55:13.327Z,15.40
2023-05-06T02:57:41.859Z,15.90
2023-05-06T03:00:10.903Z,15.25
2023-05-06T03:02:40.646Z,15.80
2023-05-06T03:05:09.582Z,14.73
2023-05-06T03:07:38.668Z,14.32
2023-05-06T03:10:07.840Z,14.80
2023-05-06T03:12:38.055Z,14.52
2023-05-06T03:15:07.475Z,14.18
2023-05-06T03:17:35.891Z,14.55
2023-05-06T03:20:07.271Z,14.13
2023-05-06T03:22:37.489Z,14.02
2023-05-06T03:25:06.498Z,15.40
2023-05-06T03:27:36.846Z,18.05
2023-05-06T03:30:12.185Z,16.92
2023-05-06T03:32:40.957Z,17.10
2023-05-06T03:35:12.182Z,17.85
2023-05-06T03:37:43.330Z,15.40
2023-05-06T03:40:11.786Z,14.32
2023-05-06T03:42:40.200Z,15.20
2023-05-06T03:45:10.264Z,14.70
2023-05-06T03:47:38.765Z,15.80
2023-05-06T03:50:09.273Z,15.75
2023-05-06T03:52:39.737Z,15.38
2023-05-06T03:55:08.658Z,15.88
2023-05-06T03:57:39.586Z,16.17
2023-05-06T04:00:09.886Z,17.75
2023-05-06T04:02:44.300Z,17.00
2023-05-06T04:05:20.598Z,16.80
2023-05-06T04:07:49.021Z,16.77
2023-05-06T04:10:17.568Z,16.60
2023-05-06T04:12:50.153Z,17.08
2023-05-06T04:15:24.424Z,16.60
2023-05-06T04:17:53.151Z,17.30
2023-05-06T04:20:22.815Z,16.83
2023-05-06T04:22:51.029Z,17.35
2023-05-06T04:25:19.630Z,18.55
2023-05-06T04:27:48.894Z,18.90
2023-05-06T04:30:18.999Z,18.85
2023-05-06T04:32:47.493Z,18.42
2023-05-06T04:35:16.476Z,20.67
2023-05-06T04:37:44.789Z,18.85
2023-05-06T04:40:23.090Z,19.90
2023-05-06T04:42:53.774Z,18.83
2023-05-06T04:45:26.652Z,17.33
2023-05-06T04:47:56.125Z,17.48
2023-05-06T04:50:25.334Z,18.98
2023-05-06T04:52:54.616Z,17.13
2023-05-06T04:55:23.924Z,17.33
2023-05-06T04:57:54.274Z,19.70
2023-05-06T05:00:22.854Z,17.75
2023-05-06T05:02:51.408Z,18.63
2023-05-06T05:05:20.861Z,18.20
2023-05-06T05:07:52.572Z,18.30
2023-05-06T05:10:21.309Z,16.17
2023-05-06T05:12:51.207Z,16.58
2023-05-06T05:15:19.865Z,17.90
2023-05-06T05:17:48.604Z,15.00
2023-05-06T05:20:17.616Z,15.88
2023-05-06T05:22:46.113Z,15.10
2023-05-06T05:25:14.616Z,16.15
2023-05-06T05:27:44.504Z,16.85
2023-05-06T05:30:13.315Z,16.38
2023-05-06T05:32:42.300Z,17.80
2023-05-06T05:35:11.203Z,15.75
2023-05-06T05:37:41.873Z,16.02
2023-05-06T05:40:11.220Z,17.50
2023-05-06T05:42:41.750Z,17.98
2023-05-06T05:45:18.709Z,17.75
2023-05-06T05:47:47.152Z,18.27
2023-05-06T05:50:17.549Z,17.67
2023-05-06T05:52:47.398Z,17.90
2023-05-06T05:55:16.126Z,18.95
2023-05-06T05:57:46.554Z,18.13
2023-05-06T06:00:16.051Z,19.13
2023-05-06T06:02:47.088Z,20.52
2023-05-06T06:05:19.970Z,20.48
2023-05-06T06:07:48.382Z,19.38
2023-05-06T06:10:17.275Z,21.70
2023-05-06T06:12:46.868Z,20.75
2023-05-06T06:15:20.121Z,19.90
2023-05-06T06:17:49.484Z,20.35
2023-05-06T06:20:20.844Z,19.98
2023-05-06T06:22:49.579Z,20.80
2023-05-06T06:25:17.724Z,21.23
2023-05-06T06:27:46.012Z,22.20
2023-05-06T06:30:14.275Z,21.30
2023-05-06T06:32:53.581Z,21.55
2023-05-06T06:35:21.856Z,20.58
2023-05-06T06:37:50.481Z,20.48
2023-05-06T06:40:18.661Z,20.98
2023-05-06T06:42:46.906Z,18.92
2023-05-06T06:45:40.886Z,20.58
2023-05-06T06:48:09.206Z,19.67
2023-05-06T06:50:37.521Z,22.00
2023-05-06T06:53:06.484Z,21.48
2023-05-06T06:55:35.022Z,23.75
2023-05-06T06:58:03.714Z,23.92
2023-05-06T07:00:31.939Z,23.08
2023-05-06T07:03:00.483Z,22.77
2023-05-06T07:05:28.826Z,23.52
2023-05-06T07:07:56.948Z,20.85
2023-05-06T07:10:25.252Z,21.35
2023-05-06T07:12:53.665Z,20.15
2023-05-06T07:15:22.083Z,21.92
2023-05-06T07:17:50.329Z,19.90
2023-05-06T07:20:18.742Z,20.80
2023-05-06T07:22:47.017Z,19.77
2023-05-06T07:25:15.266Z,20.10
2023-05-06T07:27:43.558Z,16.55
2023-05-06T07:30:12.040Z,16.48
2023-05-06T07:32:40.548Z,16.52
2023-05-06T07:35:10.190Z,14.52
2023-05-06T07:37:38.943Z,16.50
2023-05-06T07:40:08.205Z,14.30
2023-05-06T07:42:36.440Z,14.40
2023-05-06T07:45:05.906Z,13.63
2023-05-06T07:47:35.619Z,14.23
2023-05-06T07:50:03.948Z,13.13
2023-05-06T07:52:32.429Z,13.15
2023-05-06T07:55:00.567Z,13.02
2023-05-06T07:57:28.786Z,13.23
2023-05-06T07:59:57.160Z,12.32
2023-05-06T08:02:25.621Z,15.32
2023-05-06T08:04:54.597Z,16.50
2023-05-06T08:07:23.029Z,12.98
2023-05-06T08:09:51.138Z,14.15
2023-05-06T08:12:19.439Z,13.32
2023-05-06T08:14:47.633Z,12.43
2023-05-06T08:17:16.867Z,12.60
2023-05-06T08:19:45.354Z,13.02
2023-05-06T08:22:13.564Z,13.65
2023-05-06T08:24:41.688Z,12.63
2023-05-06T08:27:09.946Z,12.32
2023-05-06T08:29:38.124Z,11.85
2023-05-06T08:32:06.718Z,11.02
2023-05-06T08:34:35.225Z,10.43
2023-05-06T08:37:03.552Z,11.80
2023-05-06T08:39:32.301Z,11.25
2023-05-06T08:42:02.065Z,10.95
2023-05-06T08:44:30.449Z,11.02
2023-05-06T08:46:59.082Z,9.82
2023-05-06T08:49:27.388Z,9.38
2023-05-06T08:51:55.891Z,9.40
2023-05-06T08:54:26.148Z,9.82
2023-05-06T08:56:56.629Z,10.55
2023-05-06T08:59:26.435Z,9.93
2023-05-06T09:01:54.877Z,10.00
2023-05-06T09:04:23.227Z,9.70
2023-05-06T09:06:51.462Z,9.27
2023-05-06T09:09:19.683Z,9.05
2023-05-06T09:11:50.920Z,8.45
2023-05-06T09:14:19.160Z,8.15
2023-05-06T09:16:49.588Z,8.70
2023-05-06T09:19:20.052Z,8.50
2023-05-06T09:21:51.145Z,9.10
2023-05-06T09:24:20.738Z,8.80
2023-05-06T09:26:49.093Z,8.98
2023-05-06T09:29:17.448Z,8.25
2023-05-06T09:31:47.858Z,8.02
2023-05-06T09:34:16.520Z,8.43
2023-05-06T09:36:45.325Z,8.48
2023-05-06T09:39:14.699Z,8.73
2023-05-06T09:41:43.875Z,9.02
2023-05-06T09:44:12.760Z,9.25
2023-05-06T09:46:41.558Z,8.35
2023-05-06T09:49:12.309Z,8.65
2023-05-06T09:51:43.645Z,8.15
2023-05-06T09:54:12.149Z,8.60
2023-05-06T09:56:40.475Z,7.60
2023-05-06T09:59:09.960Z,8.57
2023-05-06T10:01:39.852Z,7.95
2023-05-06T10:04:10.527Z,8.13
2023-05-06T10:06:41.491Z,6.40
2023-05-06T10:09:10.872Z,7.78
2023-05-06T10:11:39.887Z,6.45
2023-05-06T10:14:09.341Z,6.80
2023-05-06T10:16:38.161Z,8.48
2023-05-06T10:19:08.357Z,6.28
2023-05-06T10:21:40.528Z,6.03
2023-05-06T10:26:40.598Z,7.03
2023-05-06T10:29:11.437Z,6.18
2023-05-06T10:31:46.748Z,7.88
2023-05-06T10:34:18.878Z,6.00
2023-05-06T10:36:48.991Z,9.18
2023-05-06T10:39:17.913Z,15.15
2023-05-06T10:41:46.259Z,8.00
2023-05-06T10:44:14.527Z,6.65
2023-05-06T10:46:59.872Z,9.35
2023-05-06T10:49:28.400Z,9.25
2023-05-06T10:52:16.155Z,9.95
2023-05-06T10:54:52.163Z,8.00
2023-05-06T10:57:21.159Z,7.13
2023-05-06T10:59:49.899Z,9.20
2023-05-06T11:02:20.288Z,7.00
2023-05-06T11:04:52.901Z,10.43
2023-05-06T11:07:25.151Z,19.30
2023-05-06T11:12:50.050Z,5.78
2023-05-06T11:15:37.566Z,11.32
2023-05-06T11:18:27.554Z,7.35
2023-05-06T11:21:03.785Z,11.10
2023-05-06T11:24:01.311Z,7.50
2023-05-06T11:26:29.517Z,6.60
2023-05-06T11:29:00.643Z,5.18
2023-05-06T11:31:30.846Z,5.63
2023-05-06T11:34:02.174Z,5.03
2023-05-06T11:36:30.618Z,4.30
2023-05-06T11:38:58.889Z,4.40
2023-05-06T11:41:27.220Z,6.05
2023-05-06T11:43:55.619Z,5.10
2023-05-06T11:46:24.825Z,5.40
2023-05-06T11:48:53.156Z,4.85
2023-05-06T11:51:25.000Z,5.60
2023-05-06T11:56:21.564Z,5.13
2023-05-06T11:58:50.098Z,5.80
2023-05-06T12:01:18.738Z,4.75
2023-05-06T12:03:47.382Z,6.07
2023-05-06T12:06:18.561Z,5.72
2023-05-06T12:08:46.854Z,5.50
2023-05-06T12:11:15.207Z,4.50
2023-05-06T12:13:43.614Z,4.30
2023-05-06T12:16:13.496Z,4.90
2023-05-06T12:18:42.116Z,5.65
2023-05-06T12:21:10.401Z,5.68
2023-05-06T12:23:51.885Z,4.82
2023-05-06T12:26:20.559Z,4.68
2023-05-06T12:29:08.222Z,4.75
2023-05-06T12:31:37.011Z,5.32
2023-05-06T12:34:05.902Z,5.72
2023-05-06T12:36:41.537Z,4.63
2023-05-06T12:39:10.121Z,7.35
2023-05-06T12:41:46.728Z,4.30
2023-05-06T12:44:40.005Z,5.75
2023-05-06T12:47:22.008Z,5.55
2023-05-06T12:49:57.945Z,4.70
2023-05-06T12:52:28.298Z,6.13
2023-05-06T12:54:57.413Z,5.50
2023-05-06T12:57:25.573Z,4.80
2023-05-06T12:59:54.076Z,5.22
2023-05-06T13:06:20.196Z,4.68
2023-05-06T13:08:48.887Z,5.70
2023-05-06T13:11:17.026Z,6.15
2023-05-06T13:13:45.376Z,4.53
2023-05-06T13:16:13.574Z,4.97
2023-05-06T13:18:41.876Z,5.13
2023-05-06T13:21:10.122Z,6.57
2023-05-06T13:23:38.420Z,5.72
2023-05-06T13:26:06.576Z,4.75
2023-05-06T13:28:35.368Z,5.28
2023-05-06T13:31:03.756Z,4.55
2023-05-06T13:33:32.196Z,6.13
2023-05-06T13:36:00.464Z,4.18
2023-05-06T13:38:29.957Z,5.28
2023-05-06T13:40:58.050Z,5.07
2023-05-06T13:43:26.364Z,6.72
2023-05-06T13:45:54.785Z,5.43
2023-05-06T13:48:23.351Z,5.60
2023-05-06T13:50:51.556Z,5.80
2023-05-06T13:53:20.191Z,4.88
2023-05-06T13:55:48.475Z,6.85
2023-05-06T13:58:16.967Z,7.07
2023-05-06T14:00:45.084Z,7.47
2023-05-06T14:03:13.333Z,7.40
2023-05-06T14:05:41.617Z,6.53
2023-05-06T14:08:10.203Z,8.48
2023-05-06T14:10:38.308Z,4.78
2023-05-06T14:13:07.249Z,5.70
2023-05-06T14:15:35.533Z,7.10
2023-05-06T14:18:05.109Z,9.40
2023-05-06T14:20:33.565Z,8.05
2023-05-06T14:23:01.674Z,6.93
2023-05-06T14:25:29.925Z,5.20
2023-05-06T14:27:58.206Z,6.93
2023-05-06T14:30:26.484Z,5.93
2023-05-06T14:32:54.748Z,6.43
2023-05-06T14:35:23.606Z,5.10
2023-05-06T14:37:51.779Z,5.00
2023-05-06T14:40:20.084Z,4.82
2023-05-06T14:42:48.775Z,5.82
2023-05-06T14:45:17.172Z,5.15
2023-05-06T14:47:45.288Z,6.25
2023-05-06T14:50:13.943Z,4.68
2023-05-06T14:52:42.330Z,4.85
2023-05-06T14:55:11.502Z,4.35
2023-05-06T14:57:40.033Z,5.15
2023-05-06T15:00:09.078Z,4.78
2023-05-06T15:02:37.918Z,6.07
2023-05-06T15:05:07.966Z,5.25
2023-05-06T15:07:36.717Z,5.00
2023-05-06T15:10:05.371Z,5.93
2023-05-06T15:12:34.612Z,4.63
2023-05-06T15:15:02.959Z,4.45
2023-05-06T15:17:31.269Z,6.13
2023-05-06T15:19:59.405Z,6.25
2023-05-06T15:22:27.774Z,4.45
2023-05-06T15:24:56.075Z,5.05
2023-05-06T15:27:24.139Z,5.22
2023-05-06T15:29:52.436Z,5.47
2023-05-06T15:32:20.893Z,5.45
2023-05-06T15:34:49.009Z,4.75
2023-05-06T15:37:17.372Z,5.47
2023-05-06T15:39:45.632Z,5.95
2023-05-06T15:42:14.013Z,5.00
2023-05-06T15:44:42.235Z,5.18
2023-05-06T15:47:10.447Z,5.50
2023-05-06T15:52:10.109Z,6.47
2023-05-06T15:54:38.296Z,6.07
2023-05-06T15:57:07.132Z,4.85
2023-05-06T15:59:35.759Z,6.55
2023-05-06T16:04:35.543Z,3.50
2023-05-06T16:07:03.865Z,6.28
2023-05-06T16:09:32.161Z,4.90
2023-05-06T16:12:00.508Z,5.63
2023-05-06T16:14:28.981Z,6.07
2023-05-06T16:16:57.563Z,4.68
2023-05-06T16:19:25.935Z,5.43
2023-05-06T16:21:54.207Z,4.10
2023-05-06T16:24:22.458Z,5.38
2023-05-06T16:26:50.558Z,5.00
2023-05-06T16:29:19.500Z,5.95
2023-05-06T16:31:48.708Z,5.22
2023-05-06T16:34:17.378Z,4.60
2023-05-06T16:36:45.512Z,5.82
2023-05-06T16:39:13.737Z,6.55
2023-05-06T16:41:42.286Z,6.05
2023-05-06T16:44:10.389Z,6.85
2023-05-06T16:46:38.777Z,8.70
2023-05-06T16:49:07.276Z,7.72
2023-05-06T16:51:35.513Z,6.72
2023-05-06T16:54:04.088Z,6.57
2023-05-06T16:56:43.567Z,4.97
2023-05-06T16:59:16.764Z,6.32
2023-05-06T17:01:45.657Z,5.28
2023-05-06T17:04:14.639Z,6.07
2023-05-06T17:06:42.938Z,8.93
2023-05-06T17:09:11.025Z,6.65
2023-05-06T17:13:30.246Z,7.10
2023-05-06T17:15:58.762Z,6.05
2023-05-06T17:18:26.942Z,6.70
2023-05-06T17:20:57.000Z,11.50
2023-05-06T17:23:25.900Z,8.18
2023-05-06T17:25:56.850Z,6.35
2023-05-06T17:28:25.093Z,8.60
2023-05-06T17:30:53.382Z,6.50
2023-05-06T17:33:22.157Z,7.32
2023-05-06T17:35:50.428Z,7.25
2023-05-06T17:38:18.745Z,6.20
2023-05-06T17:40:46.867Z,6.68
2023-05-06T17:43:15.228Z,7.72
2023-05-06T17:45:43.558Z,5.75
2023-05-06T17:48:11.828Z,6.53
2023-05-06T17:50:40.087Z,7.53
2023-05-06T17:53:08.547Z,5.57
2023-05-06T17:55:36.697Z,6.20
2023-05-06T17:58:04.955Z,7.38
2023-05-06T18:00:33.175Z,6.47
2023-05-06T18:03:01.684Z,7.20
2023-05-06T18:05:30.107Z,6.35
2023-05-06T18:07:58.449Z,7.03
2023-05-06T18:10:26.605Z,6.63
2023-05-06T18:12:55.247Z,6.90
2023-05-06T18:15:23.608Z,7.85
2023-05-06T18:17:51.942Z,7.43
2023-05-06T18:20:20.247Z,7.47
2023-05-06T18:22:48.922Z,8.02
2023-05-06T18:25:18.846Z,5.88
2023-05-06T18:27:47.627Z,6.18
2023-05-06T18:30:16.385Z,8.20
2023-05-06T18:32:44.681Z,7.95
2023-05-06T18:35:13.084Z,10.65
2023-05-06T18:37:41.667Z,10.40
2023-05-06T18:40:10.231Z,9.15
2023-05-06T18:42:38.516Z,9.73
2023-05-06T18:45:07.578Z,7.05
2023-05-06T18:47:35.944Z,9.25
2023-05-06T18:50:04.353Z,18.80
2023-05-06T18:52:32.638Z,20.88
2023-05-06T18:55:00.720Z,12.30
2023-05-06T18:57:29.114Z,15.98
2023-05-06T18:59:57.394Z,11.82
2023-05-06T19:02:25.646Z,11.77
2023-05-06T19:04:54.865Z,12.15
2023-05-06T19:07:23.360Z,11.75
2023-05-06T19:09:51.554Z,15.50
2023-05-06T19:12:19.924Z,12.57
2023-05-06T19:14:48.217Z,13.25
2023-05-06T19:17:19.040Z,14.38
2023-05-06T19:19:47.322Z,13.80
2023-05-06T19:22:16.448Z,16.60
2023-05-06T19:24:44.836Z,23.48
2023-05-06T19:27:13.191Z,43.25
2023-05-06T19:29:46.622Z,38.05
2023-05-06T19:32:15.100Z,38.63
2023-05-06T19:34:43.479Z,47.00
2023-05-06T19:37:11.559Z,54.75
2023-05-06T19:39:39.826Z,56.38
2023-05-06T19:42:08.204Z,50.05
2023-05-06T19:44:37.339Z,53.75
2023-05-06T19:47:05.777Z,50.38
2023-05-06T19:49:34.060Z,52.00
2023-05-06T19:52:04.825Z,52.90
2023-05-06T19:54:34.201Z,56.38
2023-05-06T19:57:02.508Z,52.42
2023-05-06T19:59:30.780Z,48.67
2023-05-06T20:01:59.237Z,42.28
2023-05-06T20:04:30.178Z,37.42
2023-05-06T20:06:58.875Z,34.53
2023-05-06T20:09:26.969Z,33.83
2023-05-06T20:11:55.578Z,28.30
2023-05-06T20:14:24.004Z,30.42
2023-05-06T20:16:52.331Z,27.58
2023-05-06T20:19:20.944Z,28.42
2023-05-06T20:21:49.246Z,32.10
2023-05-06T20:24:17.839Z,34.58
2023-05-06T20:26:45.896Z,41.75
2023-05-06T20:29:14.116Z,42.15
2023-05-06T20:31:42.753Z,41.40
2023-05-06T20:34:10.874Z,34.80
2023-05-06T20:36:42.118Z,32.58
2023-05-06T20:39:10.451Z,30.50
2023-05-06T20:41:38.728Z,29.73
2023-05-06T20:44:07.132Z,29.88
2023-05-06T20:46:35.398Z,30.35
2023-05-06T20:49:03.765Z,30.08
2023-05-06T20:51:32.094Z,30.52
2023-05-06T20:54:01.086Z,29.30
2023-05-06T20:56:29.789Z,30.65
2023-05-06T20:58:58.081Z,29.58
2023-05-06T21:01:27.602Z,30.98
2023-05-06T21:03:55.936Z,36.33
2023-05-06T21:06:24.382Z,34.33
2023-05-06T21:08:52.876Z,33.33
2023-05-06T21:11:21.655Z,33.90
2023-05-06T21:13:50.485Z,35.55
2023-05-06T21:16:18.947Z,33.05
2023-05-06T21:18:47.143Z,33.53
2023-05-06T21:21:15.658Z,33.15
2023-05-06T21:23:44.062Z,33.60
2023-05-06T21:26:12.991Z,33.28
2023-05-06T21:28:43.018Z,33.05
2023-05-06T21:31:11.421Z,35.65
2023-05-06T21:33:40.003Z,34.20
2023-05-06T21:36:08.464Z,34.53
2023-05-06T21:38:36.992Z,32.67
2023-05-06T21:41:05.360Z,35.15
2023-05-06T21:43:33.621Z,32.78
2023-05-06T21:46:04.231Z,31.60
2023-05-06T21:48:32.700Z,32.63
2023-05-06T21:51:04.546Z,30.08
2023-05-06T21:53:32.765Z,26.63
2023-05-06T21:56:01.175Z,23.55
2023-05-06T21:58:29.471Z,21.50
2023-05-06T22:00:59.826Z,24.52
2023-05-06T22:03:29.130Z,25.35
2023-05-06T22:05:57.588Z,24.67
2023-05-06T22:08:25.806Z,26.17
2023-05-06T22:10:54.240Z,27.48
2023-05-06T22:13:24.091Z,29.27
2023-05-06T22:15:54.757Z,27.10
2023-05-06T22:18:22.999Z,27.00
2023-05-06T22:20:51.208Z,23.85
2023-05-06T22:23:19.781Z,25.08
2023-05-06T22:25:47.924Z,24.75
2023-05-06T22:28:16.397Z,25.35
2023-05-06T22:30:44.680Z,27.80
2023-05-06T22:33:12.893Z,26.63
2023-05-06T22:35:41.309Z,29.70
2023-05-06T22:38:09.630Z,29.75
2023-05-06T22:40:38.052Z,28.23
2023-05-06T22:43:06.184Z,26.75
2023-05-06T22:45:34.635Z,25.48
2023-05-06T22:48:03.050Z,24.50
2023-05-06T22:50:31.406Z,23.05
2023-05-06T22:53:04.879Z,20.77
2023-05-06T22:55:39.016Z,20.73
2023-05-06T22:58:07.361Z,20.10
2023-05-06T23:00:35.672Z,19.10
2023-05-06T23:03:04.144Z,17.85
2023-05-06T23:05:32.585Z,17.48
2023-05-06T23:08:00.896Z,16.52
2023-05-06T23:10:29.358Z,17.52
2023-05-06T23:13:01.438Z,18.02
2023-05-06T23:21:46.145Z,17.08
2023-05-06T23:24:14.548Z,14.20
2023-05-06T23:26:48.953Z,12.98
2023-05-06T23:29:17.307Z,14.65
2023-05-06T23:31:45.707Z,14.15
2023-05-06T23:34:14.056Z,14.52
2023-05-06T23:36:42.589Z,13.23
2023-05-06T23:39:10.828Z,12.52
2023-05-06T23:45:14.347Z,13.85
2023-05-06T23:47:42.702Z,12.50
2023-05-06T23:50:11.508Z,14.10
2023-05-06T23:52:40.305Z,13.57
2023-05-06T23:55:09.260Z,14.95
2023-05-06T23:57:38.027Z,13.82
